createdAt,value
2019-05-19T00:02:08.438Z,95.87
2019-05-19T00:04:36.978Z,95.92
2019-05-19T00:07:05.509Z,96.28
2019-05-19T00:09:33.964Z,96.40
2019-05-19T00:12:02.383Z,94.99
2019-05-19T00:14:30.834Z,95.25
2019-05-19T00:16:59.254Z,95.45
2019-05-19T00:19:27.787Z,95.72
2019-05-19T00:21:56.246Z,96.75
2019-05-19T00:24:25.149Z,97.29
2019-05-19T00:26:53.655Z,97.69
2019-05-19T00:29:22.075Z,97.21
2019-05-19T00:31:50.537Z,96.52
2019-05-19T00:34:19.031Z,97.47
2019-05-19T00:36:47.452Z,97.79
2019-05-19T00:39:15.899Z,97.90
2019-05-19T00:41:44.436Z,98.28
2019-05-19T00:44:12.904Z,98.16
2019-05-19T00:46:41.405Z,98.29
2019-05-19T00:49:09.916Z,97.20
2019-05-19T00:51:38.877Z,97.21
2019-05-19T00:54:07.425Z,97.07
2019-05-19T00:56:36.279Z,97.12
2019-05-19T00:59:05.328Z,97.24
2019-05-19T01:01:33.794Z,97.59
2019-05-19T01:04:02.287Z,98.26
2019-05-19T01:06:30.851Z,97.90
2019-05-19T01:08:59.449Z,97.69
2019-05-19T01:11:27.946Z,97.06
2019-05-19T01:13:56.371Z,97.32
2019-05-19T01:16:24.893Z,96.91
2019-05-19T01:18:53.324Z,97.96
2019-05-19T01:21:21.941Z,99.36
2019-05-19T01:23:50.432Z,99.67
2019-05-19T01:26:18.866Z,99.50
2019-05-19T01:28:47.288Z,98.99
2019-05-19T01:31:16.887Z,98.87
2019-05-19T01:33:45.315Z,99.13
2019-05-19T01:36:13.748Z,98.65
2019-05-19T01:38:42.285Z,98.51
2019-05-19T01:41:10.789Z,98.89
2019-05-19T01:43:39.230Z,98.88
2019-05-19T01:46:07.711Z,98.41
2019-05-19T01:48:36.154Z,98.06
2019-05-19T01:51:04.637Z,98.51
2019-05-19T01:53:33.112Z,98.75
2019-05-19T01:56:01.553Z,99.59
2019-05-19T01:58:30.020Z,99.60
2019-05-19T02:00:58.457Z,99.61
2019-05-19T02:03:26.867Z,99.56
2019-05-19T02:05:55.333Z,99.89
2019-05-19T02:08:23.900Z,99.88
2019-05-19T02:10:52.404Z,100.00
2019-05-19T02:13:20.913Z,100.00
2019-05-19T02:15:49.416Z,100.00
2019-05-19T02:18:17.886Z,100.00
2019-05-19T02:20:46.441Z,98.99
2019-05-19T02:23:14.924Z,98.98
2019-05-19T02:25:43.375Z,99.02
2019-05-19T02:28:11.871Z,98.98
2019-05-19T02:30:40.444Z,99.34
2019-05-19T02:33:08.861Z,99.43
2019-05-19T02:35:37.341Z,99.09
2019-05-19T02:38:05.900Z,99.47
2019-05-19T02:40:36.075Z,99.80
2019-05-19T02:43:04.867Z,99.86
2019-05-19T02:45:36.018Z,100.00
2019-05-19T02:48:05.798Z,100.00
2019-05-19T02:50:50.798Z,100.00
2019-05-19T02:53:08.885Z,100.00
2019-05-19T02:55:37.838Z,100.00
2019-05-19T02:58:06.930Z,100.00
2019-05-19T03:00:37.918Z,100.00
2019-05-19T03:03:08.662Z,100.00
2019-05-19T03:05:38.126Z,100.00
2019-05-19T03:08:06.739Z,100.00
2019-05-19T03:10:35.244Z,100.00
2019-05-19T03:13:03.816Z,100.00
2019-05-19T03:15:32.263Z,100.00
2019-05-19T03:18:00.693Z,100.00
2019-05-19T03:20:29.294Z,100.00
2019-05-19T03:22:57.736Z,100.00
2019-05-19T03:25:26.169Z,100.00
2019-05-19T03:27:54.630Z,100.00
2019-05-19T03:30:33.691Z,100.00
2019-05-19T03:33:03.778Z,100.00
2019-05-19T03:35:32.219Z,100.00
2019-05-19T03:38:00.658Z,100.00
2019-05-19T03:40:29.233Z,100.00
2019-05-19T03:42:57.616Z,100.00
2019-05-19T03:45:26.038Z,100.00
2019-05-19T03:47:54.545Z,100.00
2019-05-19T03:50:23.011Z,100.00
2019-05-19T03:52:51.448Z,100.00
2019-05-19T03:55:19.895Z,100.00
2019-05-19T03:57:48.355Z,100.00
2019-05-19T04:00:18.979Z,100.00
2019-05-19T04:02:47.380Z,100.00
2019-05-19T04:05:15.879Z,100.00
2019-05-19T04:07:44.355Z,100.00
2019-05-19T04:10:13.004Z,100.00
2019-05-19T04:12:41.529Z,100.00
2019-05-19T04:15:10.150Z,100.00
2019-05-19T04:17:38.577Z,100.00
2019-05-19T04:20:08.407Z,100.00
2019-05-19T04:22:37.074Z,100.00
2019-05-19T04:25:06.346Z,100.00
2019-05-19T04:27:34.798Z,100.00
2019-05-19T04:30:03.503Z,100.00
2019-05-19T04:32:31.973Z,100.00
2019-05-19T04:35:00.428Z,100.00
2019-05-19T04:37:28.861Z,100.00
2019-05-19T04:39:57.318Z,100.00
2019-05-19T04:42:25.776Z,100.00
2019-05-19T04:44:54.200Z,100.00
2019-05-19T04:47:22.676Z,100.00
2019-05-19T04:49:51.161Z,100.00
2019-05-19T04:52:19.561Z,100.00
2019-05-19T04:54:48.028Z,100.00
2019-05-19T04:57:16.457Z,100.00
2019-05-19T04:59:44.941Z,100.00
2019-05-19T05:02:13.386Z,100.00
2019-05-19T05:04:41.942Z,100.00
2019-05-19T05:07:10.374Z,100.00
2019-05-19T05:09:38.801Z,100.00
2019-05-19T05:12:07.329Z,100.00
2019-05-19T05:14:35.760Z,100.00
2019-05-19T05:17:04.291Z,100.00
2019-05-19T05:19:32.720Z,100.00
2019-05-19T05:22:01.146Z,99.26
2019-05-19T05:24:29.605Z,99.02
2019-05-19T05:26:58.027Z,99.10
2019-05-19T05:29:26.557Z,100.00
2019-05-19T05:31:55.014Z,100.00
2019-05-19T05:34:23.443Z,100.00
2019-05-19T05:36:51.982Z,100.00
2019-05-19T05:39:20.472Z,99.95
2019-05-19T05:41:48.891Z,99.66
2019-05-19T05:44:17.353Z,98.86
2019-05-19T05:46:45.849Z,98.17
2019-05-19T05:49:14.375Z,97.37
2019-05-19T05:51:42.809Z,96.64
2019-05-19T05:54:11.248Z,96.03
2019-05-19T05:56:40.041Z,95.70
2019-05-19T05:59:08.550Z,95.35
2019-05-19T06:01:37.005Z,94.10
2019-05-19T06:04:05.512Z,94.45
2019-05-19T06:06:33.970Z,94.40
2019-05-19T06:09:04.226Z,94.23
2019-05-19T06:11:32.693Z,94.32
2019-05-19T06:14:01.117Z,94.43
2019-05-19T06:16:29.573Z,93.30
2019-05-19T06:18:57.988Z,93.71
2019-05-19T06:21:26.407Z,92.64
2019-05-19T06:23:54.932Z,92.03
2019-05-19T06:26:23.343Z,93.52
2019-05-19T06:28:51.784Z,93.43
2019-05-19T06:31:20.332Z,93.61
2019-05-19T06:33:48.862Z,92.06
2019-05-19T06:36:17.356Z,92.83
2019-05-19T06:38:45.803Z,92.84
2019-05-19T06:41:14.245Z,93.01
2019-05-19T06:43:42.702Z,93.09
2019-05-19T06:46:11.112Z,92.52
2019-05-19T06:48:39.567Z,92.28
2019-05-19T06:51:07.997Z,92.26
2019-05-19T06:53:36.559Z,91.90
2019-05-19T06:56:04.979Z,91.76
2019-05-19T06:58:33.472Z,92.13
2019-05-19T07:01:02.098Z,92.18
2019-05-19T07:03:30.550Z,91.83
2019-05-19T07:05:58.975Z,91.59
2019-05-19T07:08:27.422Z,92.36
2019-05-19T07:10:55.907Z,90.93
2019-05-19T07:13:24.409Z,90.55
2019-05-19T07:15:52.947Z,90.73
2019-05-19T07:18:21.418Z,90.34
2019-05-19T07:20:49.954Z,89.50
2019-05-19T07:23:27.704Z,89.73
2019-05-19T07:25:48.556Z,89.47
2019-05-19T07:28:17.017Z,88.94
2019-05-19T07:30:45.491Z,89.13
2019-05-19T07:33:13.954Z,89.57
2019-05-19T07:35:42.411Z,85.17
2019-05-19T07:38:10.865Z,83.46
2019-05-19T07:40:39.318Z,83.87
2019-05-19T07:43:07.809Z,82.54
2019-05-19T07:45:36.343Z,82.84
2019-05-19T07:48:04.780Z,83.15
2019-05-19T07:50:33.202Z,83.27
2019-05-19T07:53:01.680Z,79.90
2019-05-19T07:55:30.282Z,78.77
2019-05-19T07:57:58.785Z,78.49
2019-05-19T08:00:27.306Z,78.38
2019-05-19T08:02:55.857Z,73.59
2019-05-19T08:05:24.273Z,72.91
2019-05-19T08:07:52.691Z,73.12
2019-05-19T08:10:21.223Z,70.81
2019-05-19T08:12:49.720Z,71.69
2019-05-19T08:15:18.820Z,70.65
2019-05-19T08:17:47.240Z,71.26
2019-05-19T08:20:17.199Z,71.21
2019-05-19T08:22:46.199Z,70.88
2019-05-19T08:25:15.330Z,71.56
2019-05-19T08:27:43.775Z,71.97
2019-05-19T08:30:12.673Z,71.96
2019-05-19T08:32:41.160Z,71.60
2019-05-19T08:35:09.728Z,72.42
2019-05-19T08:37:38.215Z,71.81
2019-05-19T08:40:07.396Z,72.58
2019-05-19T08:42:35.970Z,74.20
2019-05-19T08:45:06.745Z,72.78
2019-05-19T08:47:35.263Z,73.03
2019-05-19T08:50:07.692Z,76.54
2019-05-19T08:52:36.211Z,75.80
2019-05-19T08:55:05.591Z,73.84
2019-05-19T08:57:34.075Z,73.62
2019-05-19T09:00:02.618Z,73.50
2019-05-19T09:02:31.081Z,73.71
2019-05-19T09:04:59.529Z,74.42
2019-05-19T09:07:28.058Z,73.82
2019-05-19T09:09:56.584Z,73.12
2019-05-19T09:12:25.047Z,73.87
2019-05-19T09:14:53.473Z,73.90
2019-05-19T09:17:21.924Z,73.43
2019-05-19T09:19:50.378Z,72.73
2019-05-19T09:22:18.938Z,70.71
2019-05-19T09:24:47.365Z,70.41
2019-05-19T09:27:15.869Z,72.76
2019-05-19T09:29:44.370Z,73.00
2019-05-19T09:32:12.794Z,72.64
2019-05-19T09:34:41.260Z,71.89
2019-05-19T09:37:09.678Z,72.92
2019-05-19T09:39:38.113Z,70.42
2019-05-19T09:42:06.621Z,69.92
2019-05-19T09:44:35.069Z,68.48
2019-05-19T09:47:03.586Z,68.53
2019-05-19T09:49:32.414Z,67.59
2019-05-19T09:52:01.385Z,66.15
2019-05-19T09:54:44.251Z,67.66
2019-05-19T09:57:01.814Z,66.42
2019-05-19T09:59:30.409Z,67.22
2019-05-19T10:01:59.111Z,67.65
2019-05-19T10:04:27.572Z,65.89
2019-05-19T10:06:56.181Z,67.39
2019-05-19T10:09:36.765Z,67.87
2019-05-19T10:12:07.149Z,68.42
2019-05-19T10:14:35.591Z,68.58
2019-05-19T10:17:04.290Z,68.70
2019-05-19T10:19:32.875Z,68.96
2019-05-19T10:22:01.294Z,67.22
2019-05-19T10:24:29.852Z,68.15
2019-05-19T10:26:58.309Z,68.53
2019-05-19T10:29:26.799Z,69.44
2019-05-19T10:31:55.327Z,68.64
2019-05-19T10:34:23.775Z,69.17
2019-05-19T10:36:52.195Z,68.41
2019-05-19T10:39:20.657Z,67.15
2019-05-19T10:41:49.157Z,67.91
2019-05-19T10:44:17.609Z,68.28
2019-05-19T10:46:46.076Z,66.54
2019-05-19T10:49:14.569Z,66.40
2019-05-19T10:51:43.092Z,63.83
2019-05-19T10:54:11.610Z,62.80
2019-05-19T10:56:40.096Z,62.18
2019-05-19T10:59:08.571Z,63.45
2019-05-19T11:01:37.175Z,62.54
2019-05-19T11:04:05.747Z,60.48
2019-05-19T11:06:34.182Z,59.09
2019-05-19T11:09:02.792Z,60.11
2019-05-19T11:11:31.218Z,60.44
2019-05-19T11:13:59.701Z,57.63
2019-05-19T11:16:28.148Z,59.47
2019-05-19T11:18:56.570Z,57.79
2019-05-19T11:21:25.115Z,57.14
2019-05-19T11:23:53.596Z,56.65
2019-05-19T11:26:22.253Z,55.78
2019-05-19T11:28:50.776Z,55.86
2019-05-19T11:31:19.200Z,55.00
2019-05-19T11:33:47.612Z,56.49
2019-05-19T11:36:16.097Z,55.89
2019-05-19T11:38:44.547Z,54.05
2019-05-19T11:41:13.002Z,54.35
2019-05-19T11:43:41.469Z,56.71
2019-05-19T11:46:09.992Z,55.57
2019-05-19T11:48:38.434Z,55.02
2019-05-19T11:51:06.881Z,54.86
2019-05-19T11:53:35.382Z,55.79
2019-05-19T11:56:06.649Z,54.92
2019-05-19T11:58:34.083Z,55.00
2019-05-19T12:01:02.658Z,54.63
2019-05-19T12:03:31.128Z,57.28
2019-05-19T12:05:59.564Z,56.09
2019-05-19T12:08:29.781Z,57.86
2019-05-19T12:10:58.336Z,57.88
2019-05-19T12:13:26.832Z,57.27
2019-05-19T12:15:55.369Z,58.21
2019-05-19T12:18:23.791Z,57.92
2019-05-19T12:20:52.278Z,56.59
2019-05-19T12:23:20.734Z,55.53
2019-05-19T12:25:49.209Z,56.66
2019-05-19T12:28:17.726Z,55.55
2019-05-19T12:30:46.204Z,56.55
2019-05-19T12:33:14.762Z,55.88
2019-05-19T12:35:43.264Z,57.03
2019-05-19T12:38:11.765Z,54.62
2019-05-19T12:40:40.679Z,55.88
2019-05-19T12:43:09.094Z,54.83
2019-05-19T12:45:37.596Z,52.80
2019-05-19T12:48:06.040Z,53.01
2019-05-19T12:50:34.641Z,52.06
2019-05-19T12:53:03.213Z,52.95
2019-05-19T12:55:31.751Z,55.75
2019-05-19T12:58:00.209Z,56.15
2019-05-19T13:00:28.790Z,57.13
2019-05-19T13:02:57.473Z,55.29
2019-05-19T13:05:25.910Z,55.92
2019-05-19T13:07:54.479Z,59.31
2019-05-19T13:10:22.965Z,60.04
2019-05-19T13:12:51.614Z,60.96
2019-05-19T13:15:20.551Z,62.96
2019-05-19T13:17:48.994Z,61.17
2019-05-19T13:20:17.554Z,60.75
2019-05-19T13:22:46.036Z,60.63
2019-05-19T13:25:14.610Z,61.99
2019-05-19T13:27:43.104Z,64.55
2019-05-19T13:30:12.210Z,62.88
2019-05-19T13:32:40.786Z,61.35
2019-05-19T13:35:09.378Z,61.38
2019-05-19T13:37:37.878Z,60.02
2019-05-19T13:40:10.084Z,59.64
2019-05-19T13:42:38.513Z,59.10
2019-05-19T13:45:07.682Z,59.23
2019-05-19T13:47:36.448Z,60.93
2019-05-19T13:50:09.334Z,58.80
2019-05-19T13:52:37.767Z,59.86
2019-05-19T13:55:06.945Z,58.54
2019-05-19T13:57:35.509Z,58.40
2019-05-19T14:00:04.830Z,58.92
2019-05-19T14:02:33.297Z,58.07
2019-05-19T14:05:01.751Z,58.54
2019-05-19T14:07:30.215Z,59.09
2019-05-19T14:09:58.662Z,57.88
2019-05-19T14:12:27.092Z,57.46
2019-05-19T14:14:55.588Z,54.54
2019-05-19T14:17:24.052Z,56.61
2019-05-19T14:19:52.477Z,58.04
2019-05-19T14:22:21.045Z,59.20
2019-05-19T14:24:49.504Z,58.36
2019-05-19T14:27:29.638Z,57.84
2019-05-19T14:29:48.161Z,58.71
2019-05-19T14:32:16.620Z,58.79
2019-05-19T14:34:45.122Z,57.87
2019-05-19T14:37:13.543Z,56.76
2019-05-19T14:39:42.142Z,57.72
2019-05-19T14:42:12.199Z,60.15
2019-05-19T14:44:40.619Z,60.23
2019-05-19T14:47:09.235Z,61.66
2019-05-19T14:49:37.717Z,62.21
2019-05-19T14:52:06.317Z,60.84
2019-05-19T14:54:34.776Z,60.46
2019-05-19T14:57:03.216Z,61.23
2019-05-19T14:59:31.659Z,59.05
2019-05-19T15:02:00.072Z,59.81
2019-05-19T15:04:28.654Z,61.41
2019-05-19T15:06:57.101Z,61.95
2019-05-19T15:09:25.533Z,63.15
2019-05-19T15:11:53.987Z,62.02
2019-05-19T15:14:22.500Z,62.70
2019-05-19T15:16:50.924Z,63.49
2019-05-19T15:19:19.445Z,63.92
2019-05-19T15:21:47.971Z,65.57
2019-05-19T15:24:16.508Z,67.46
2019-05-19T15:26:44.941Z,68.27
2019-05-19T15:29:13.425Z,68.65
2019-05-19T15:31:41.850Z,66.62
2019-05-19T15:34:10.283Z,66.71
2019-05-19T15:36:38.836Z,65.10
2019-05-19T15:39:07.621Z,65.84
2019-05-19T15:41:36.123Z,65.50
2019-05-19T15:44:04.727Z,64.02
2019-05-19T15:46:33.270Z,63.74
2019-05-19T15:49:01.797Z,64.26
2019-05-19T15:51:37.154Z,64.10
2019-05-19T15:54:00.598Z,63.65
2019-05-19T15:56:29.137Z,62.71
2019-05-19T15:58:57.602Z,63.30
2019-05-19T16:01:26.062Z,64.69
2019-05-19T16:03:54.577Z,65.75
2019-05-19T16:06:23.013Z,65.49
2019-05-19T16:08:51.561Z,66.91
2019-05-19T16:11:20.066Z,67.01
2019-05-19T16:13:48.587Z,65.97
2019-05-19T16:16:18.552Z,67.15
2019-05-19T16:18:47.063Z,67.14
2019-05-19T16:21:15.622Z,66.76
2019-05-19T16:23:44.117Z,66.89
2019-05-19T16:26:12.580Z,66.88
2019-05-19T16:28:41.082Z,66.82
2019-05-19T16:31:09.601Z,66.45
2019-05-19T16:33:38.043Z,67.04
2019-05-19T16:36:08.038Z,68.38
2019-05-19T16:38:36.734Z,67.75
2019-05-19T16:41:05.269Z,67.66
2019-05-19T16:43:33.764Z,67.84
2019-05-19T16:46:02.279Z,67.67
2019-05-19T16:48:32.325Z,67.76
2019-05-19T16:51:02.421Z,67.13
2019-05-19T16:53:30.918Z,66.80
2019-05-19T16:55:59.364Z,67.33
2019-05-19T16:58:27.897Z,67.62
2019-05-19T17:00:58.172Z,67.65
2019-05-19T17:03:26.593Z,68.20
2019-05-19T17:05:55.181Z,68.73
2019-05-19T17:08:23.738Z,68.55
2019-05-19T17:10:52.158Z,68.86
2019-05-19T17:13:20.737Z,69.81
2019-05-19T17:15:49.279Z,69.75
2019-05-19T17:18:17.765Z,69.56
2019-05-19T17:20:46.247Z,69.80
2019-05-19T17:23:14.682Z,70.79
2019-05-19T17:25:43.202Z,70.40
2019-05-19T17:28:11.793Z,70.55
2019-05-19T17:30:40.428Z,70.79
2019-05-19T17:33:08.914Z,70.48
2019-05-19T17:35:37.347Z,70.61
2019-05-19T17:38:05.920Z,70.66
2019-05-19T17:40:34.343Z,71.40
2019-05-19T17:43:02.771Z,71.85
2019-05-19T17:45:31.312Z,71.75
2019-05-19T17:48:09.545Z,72.87
2019-05-19T17:50:34.819Z,72.73
2019-05-19T17:53:03.880Z,72.00
2019-05-19T17:55:34.950Z,72.32
2019-05-19T17:58:04.517Z,71.93
2019-05-19T18:00:39.018Z,72.06
2019-05-19T18:03:07.978Z,71.59
2019-05-19T18:05:36.636Z,71.69
2019-05-19T18:08:06.015Z,72.58
2019-05-19T18:10:34.616Z,72.99
2019-05-19T18:13:03.229Z,72.49
2019-05-19T18:15:31.757Z,73.74
2019-05-19T18:18:00.405Z,72.82
2019-05-19T18:20:29.022Z,73.61
2019-05-19T18:22:57.532Z,73.99
2019-05-19T18:25:26.230Z,73.16
2019-05-19T18:27:54.765Z,71.46
2019-05-19T18:30:23.249Z,72.05
2019-05-19T18:32:51.748Z,69.96
2019-05-19T18:35:20.244Z,69.20
2019-05-19T18:37:51.237Z,68.56
2019-05-19T18:40:19.946Z,68.60
2019-05-19T18:42:48.504Z,67.88
2019-05-19T18:45:17.108Z,67.32
2019-05-19T18:47:45.518Z,67.92
2019-05-19T18:50:14.159Z,68.38
2019-05-19T18:52:42.711Z,68.10
2019-05-19T18:55:11.354Z,67.99
2019-05-19T18:57:39.812Z,65.36
2019-05-19T19:00:08.583Z,68.34
2019-05-19T19:02:37.209Z,70.20
2019-05-19T19:05:07.362Z,72.74
2019-05-19T19:07:52.308Z,74.84
2019-05-19T19:10:20.912Z,76.84
2019-05-19T19:12:49.455Z,78.69
2019-05-19T19:15:18.096Z,79.57
2019-05-19T19:17:46.663Z,80.60
2019-05-19T19:20:15.460Z,81.30
2019-05-19T19:22:43.964Z,81.37
2019-05-19T19:25:12.516Z,81.84
2019-05-19T19:27:41.108Z,82.56
2019-05-19T19:30:10.508Z,83.56
2019-05-19T19:32:39.020Z,83.13
2019-05-19T19:35:08.364Z,82.42
2019-05-19T19:37:36.891Z,80.49
2019-05-19T19:40:07.068Z,79.35
2019-05-19T19:42:35.495Z,80.82
2019-05-19T19:45:04.832Z,82.41
2019-05-19T19:47:33.342Z,82.14
2019-05-19T19:50:01.805Z,84.15
2019-05-19T19:52:30.312Z,82.17
2019-05-19T19:54:58.783Z,83.78
2019-05-19T19:57:27.258Z,84.24
2019-05-19T19:59:55.715Z,83.47
2019-05-19T20:02:24.343Z,84.33
2019-05-19T20:04:52.780Z,85.68
2019-05-19T20:07:21.283Z,86.23
2019-05-19T20:09:49.935Z,86.85
2019-05-19T20:12:18.351Z,87.97
2019-05-19T20:14:47.245Z,87.44
2019-05-19T20:17:15.717Z,88.37
2019-05-19T20:19:44.208Z,88.53
2019-05-19T20:22:12.733Z,89.23
2019-05-19T20:24:41.159Z,89.84
2019-05-19T20:27:09.719Z,90.47
2019-05-19T20:29:38.260Z,88.78
2019-05-19T20:32:06.802Z,89.36
2019-05-19T20:34:35.295Z,89.90
2019-05-19T20:37:03.900Z,90.52
2019-05-19T20:39:32.401Z,89.11
2019-05-19T20:42:00.868Z,90.39
2019-05-19T20:44:29.292Z,90.80
2019-05-19T20:46:57.816Z,90.67
2019-05-19T20:49:26.320Z,90.34
2019-05-19T20:51:54.794Z,90.06
2019-05-19T20:54:23.268Z,91.66
2019-05-19T20:56:51.682Z,91.00
2019-05-19T20:59:20.155Z,89.64
2019-05-19T21:01:48.657Z,90.62
2019-05-19T21:04:17.243Z,88.20
2019-05-19T21:06:45.721Z,87.19
2019-05-19T21:09:14.407Z,88.72
2019-05-19T21:11:42.865Z,87.96
2019-05-19T21:14:11.319Z,88.79
2019-05-19T21:16:39.763Z,88.82
2019-05-19T21:19:08.276Z,88.99
2019-05-19T21:21:36.696Z,89.76
2019-05-19T21:24:05.206Z,88.58
2019-05-19T21:26:33.621Z,88.85
2019-05-19T21:29:02.152Z,89.37
2019-05-19T21:31:30.715Z,90.10
2019-05-19T21:33:59.149Z,89.43
2019-05-19T21:36:27.630Z,90.58
2019-05-19T21:38:56.115Z,92.07
2019-05-19T21:41:24.791Z,92.01
2019-05-19T21:43:53.305Z,92.40
2019-05-19T21:46:21.831Z,92.24
2019-05-19T21:48:50.246Z,89.65
2019-05-19T21:51:18.662Z,89.78
2019-05-19T21:53:48.193Z,90.19
2019-05-19T21:56:16.692Z,90.34
2019-05-19T21:58:45.108Z,89.42
2019-05-19T22:01:22.895Z,91.18
2019-05-19T22:03:44.080Z,92.00
2019-05-19T22:06:12.637Z,92.68
2019-05-19T22:08:41.159Z,92.53
2019-05-19T22:11:09.644Z,91.63
2019-05-19T22:13:38.099Z,91.98
2019-05-19T22:16:13.088Z,91.24
2019-05-19T22:18:36.889Z,91.74
2019-05-19T22:21:05.446Z,92.81
2019-05-19T22:23:33.974Z,95.34
2019-05-19T22:26:02.380Z,96.65
2019-05-19T22:28:30.828Z,98.21
2019-05-19T22:30:59.432Z,98.53
2019-05-19T22:33:27.853Z,98.70
2019-05-19T22:35:56.314Z,99.77
2019-05-19T22:38:24.793Z,99.56
2019-05-19T22:40:53.213Z,99.59
2019-05-19T22:43:21.716Z,100.00
2019-05-19T22:45:50.121Z,100.00
2019-05-19T22:48:18.553Z,100.00
2019-05-19T22:50:47.021Z,100.00
2019-05-19T22:53:15.448Z,100.00
2019-05-19T22:55:43.975Z,100.00
2019-05-19T22:58:12.407Z,100.00
2019-05-19T23:00:41.004Z,100.00
2019-05-19T23:03:09.454Z,100.00
2019-05-19T23:05:37.944Z,100.00
2019-05-19T23:08:06.417Z,100.00
2019-05-19T23:10:34.896Z,100.00
2019-05-19T23:13:03.402Z,100.00
2019-05-19T23:15:31.929Z,100.00
2019-05-19T23:18:00.420Z,100.00
2019-05-19T23:20:28.860Z,100.00
2019-05-19T23:22:57.378Z,100.00
2019-05-19T23:25:25.827Z,100.00
2019-05-19T23:27:54.250Z,100.00
2019-05-19T23:30:23.035Z,100.00
2019-05-19T23:32:51.521Z,100.00
2019-05-19T23:35:19.988Z,100.00
2019-05-19T23:37:48.725Z,100.00
2019-05-19T23:40:17.221Z,100.00
2019-05-19T23:42:45.740Z,100.00
2019-05-19T23:45:14.229Z,100.00
2019-05-19T23:47:42.661Z,100.00
2019-05-19T23:50:11.986Z,100.00
2019-05-19T23:52:40.499Z,100.00
2019-05-19T23:55:09.066Z,100.00
2019-05-19T23:57:37.518Z,100.00
